Groveport, OH (43125)

3:02 PM EST on February 14, 2016 (GMT -0500)
LAG | | Change Station
CLOSE
Current Station
Personal Weather Station
Location: Groveport, OH
Elevation: 728 ft
Nearby Weather Stations

Elev 728 ft 39.85 °N, 82.88 °W | Updated 2 minutes ago

Overcast
Overcast
22.2 °F
Feels Like 14 °F
N
7.0
Wind Variable Wind from East
Gusts 12.0 mph

Today
High -- | Low -- °F
--% Chance of Precip.
Yesterday
High -- | Low -- °F
Precip. -- in
Pressure 30.27 in
Visibility 10.0 miles
Clouds Clear
Windchill 14 °F
Dew Point 8 °F
Humidity 55%
Rainfall 0.00 in
Snow Depth Not available.
7:25 AM 6:05 PM
Waxing Crescent, 45% visible
METAR KLCK 141955Z AUTO 11009KT 10SM CLR M07/M15 A3027 RMK AO2 T10731150
Pressure 30.27 in
Visibility 10.0 miles
Clouds Clear
Windchill 14 °F
Dew Point 8 °F
Humidity 55%
Rainfall 0.00 in
Snow Depth Not available.
7:25 AM 6:05 PM
Waxing Crescent, 45% visible
METAR KLCK 141955Z AUTO 11009KT 10SM CLR M07/M15 A3027 RMK AO2 T10731150

10-Day Weather Forecast

Almanac

Astronomy

Feb. 14, 2016 Rise Set
Actual Time
Civil Twilight
Nautical Twilight
Astronomical Twilight
Moon
Length of Visible Light
Length of Day
Tomorrow will be .
, % of the Moon is Illuminated

Today's Extremes

State Highs State Lows

Community

WunderPhotos

Upload Photos

1,892,880 photos uploaded!

WunderBlog® & News

Nearby

Air Quality

  Air Quality AQ Index Pollutant
Not available.

Snow Depth

Station Depth Elevation

Earthquake Activity

City Distance Mag. Time & Date
Minimum magnitude displayed is 2.5.

Coastal Water Temperatures

Place Temperature

Stations

Nearby Weather Stations

Station Location Temp. Windchill Dew Point Humidity Wind Precip. Elev Updated Type
                   

Watches & Warnings

There are currently no watches in effect.